createdAt,value
2023-04-23T00:00:12.642Z,4.20
2023-04-23T00:01:07.274Z,4.10
2023-04-23T00:01:44.765Z,4.30
2023-04-23T00:02:18.826Z,4.10
2023-04-23T00:02:54.536Z,4.10
2023-04-23T00:03:33.453Z,4.10
2023-04-23T00:04:09.525Z,4.10
2023-04-23T00:04:52.887Z,3.90
2023-04-23T00:05:29.073Z,4.10
2023-04-23T00:06:06.304Z,4.20
2023-04-23T00:06:40.167Z,3.90
2023-04-23T00:07:14.396Z,3.90
2023-04-23T00:07:47.890Z,4.30
2023-04-23T00:08:22.858Z,4.40
2023-04-23T00:09:00.041Z,4.00
2023-04-23T00:09:34.714Z,4.10
2023-04-23T00:10:09.394Z,3.90
2023-04-23T00:10:42.854Z,4.40
2023-04-23T00:11:16.364Z,4.20
2023-04-23T00:11:51.965Z,4.00
2023-04-23T00:12:29.098Z,4.10
2023-04-23T00:13:04.834Z,4.50
2023-04-23T00:13:38.821Z,4.70
2023-04-23T00:14:12.587Z,4.20
2023-04-23T00:14:46.243Z,4.60
2023-04-23T00:15:22.273Z,4.30
2023-04-23T00:15:56.001Z,4.30
2023-04-23T00:16:29.847Z,4.40
2023-04-23T00:17:03.222Z,4.40
2023-04-23T00:17:36.708Z,4.10
2023-04-23T00:18:10.186Z,4.10
2023-04-23T00:18:43.494Z,4.50
2023-04-23T00:19:16.924Z,4.00
2023-04-23T00:19:50.233Z,3.90
2023-04-23T00:20:23.616Z,4.20
2023-04-23T00:20:57.580Z,4.10
2023-04-23T00:21:31.687Z,3.90
2023-04-23T00:22:05.222Z,4.30
2023-04-23T00:22:38.689Z,4.20
2023-04-23T00:23:12.250Z,4.10
2023-04-23T00:23:47.789Z,4.10
2023-04-23T00:24:21.245Z,3.90
2023-04-23T00:24:54.604Z,3.80
2023-04-23T00:25:28.256Z,3.90
2023-04-23T00:26:02.039Z,4.30
2023-04-23T00:26:35.979Z,4.10
2023-04-23T00:27:09.535Z,4.00
2023-04-23T00:27:42.890Z,4.10
2023-04-23T00:28:16.486Z,4.20
2023-04-23T00:28:51.938Z,4.10
2023-04-23T00:29:25.287Z,4.30
2023-04-23T00:29:58.767Z,4.20
2023-04-23T00:30:32.555Z,4.20
2023-04-23T00:31:05.928Z,4.20
2023-04-23T00:31:39.444Z,4.60
2023-04-23T00:32:12.950Z,4.40
2023-04-23T00:32:46.684Z,4.10
2023-04-23T00:33:20.187Z,4.40
2023-04-23T00:33:54.437Z,4.80
2023-04-23T00:34:28.073Z,4.40
2023-04-23T00:35:01.733Z,4.60
2023-04-23T00:35:35.307Z,4.30
2023-04-23T00:36:12.049Z,4.10
2023-04-23T00:36:45.439Z,4.00
2023-04-23T00:37:18.928Z,4.40
2023-04-23T00:37:52.376Z,4.20
2023-04-23T00:38:27.685Z,4.40
2023-04-23T00:39:01.268Z,4.40
2023-04-23T00:39:37.756Z,4.50
2023-04-23T00:40:12.333Z,4.50
2023-04-23T00:40:47.869Z,4.20
2023-04-23T00:41:22.204Z,4.20
2023-04-23T00:41:55.773Z,4.30
2023-04-23T00:42:29.622Z,4.20
2023-04-23T00:43:03.267Z,4.30
2023-04-23T00:43:37.763Z,4.30
2023-04-23T00:44:12.328Z,4.10
2023-04-23T00:44:45.796Z,4.50
2023-04-23T00:45:19.266Z,4.10
2023-04-23T00:45:52.816Z,4.10
2023-04-23T00:46:26.955Z,3.90
2023-04-23T00:47:00.896Z,3.80
2023-04-23T00:47:35.494Z,4.40
2023-04-23T00:48:09.277Z,4.00
2023-04-23T00:48:43.206Z,4.20
2023-04-23T00:49:17.949Z,4.10
2023-04-23T00:49:53.438Z,4.50
2023-04-23T00:50:29.764Z,4.20
2023-04-23T00:51:06.988Z,4.20
2023-04-23T00:51:40.769Z,4.20
2023-04-23T00:52:14.145Z,4.20
2023-04-23T00:52:47.781Z,4.40
2023-04-23T00:53:21.257Z,4.40
2023-04-23T00:53:54.814Z,4.50
2023-04-23T00:54:28.733Z,4.30
2023-04-23T00:55:02.883Z,4.40
2023-04-23T00:55:36.639Z,3.90
2023-04-23T00:56:10.841Z,4.10
2023-04-23T00:56:44.597Z,3.70
2023-04-23T00:57:18.641Z,4.20
2023-04-23T00:57:52.842Z,4.50
2023-04-23T00:58:26.494Z,4.40
2023-04-23T00:59:03.120Z,4.70
2023-04-23T00:59:36.827Z,4.50
2023-04-23T01:00:14.138Z,4.10
2023-04-23T01:00:48.860Z,4.50
2023-04-23T01:01:22.626Z,5.10
2023-04-23T01:01:56.748Z,4.30
2023-04-23T01:02:31.769Z,4.60
2023-04-23T01:03:05.871Z,4.30
2023-04-23T01:03:41.235Z,4.40
2023-04-23T01:04:18.903Z,4.30
2023-04-23T01:04:52.521Z,4.40
2023-04-23T01:05:26.364Z,4.10
2023-04-23T01:06:00.466Z,4.30
2023-04-23T01:06:34.492Z,4.20
2023-04-23T01:07:08.285Z,4.30
2023-04-23T01:07:44.275Z,4.60
2023-04-23T01:08:18.867Z,4.40
2023-04-23T01:08:52.276Z,4.10
2023-04-23T01:09:27.953Z,4.30
2023-04-23T01:10:01.862Z,4.00
2023-04-23T01:10:36.381Z,4.30
2023-04-23T01:11:10.292Z,4.20
2023-04-23T01:11:44.849Z,4.20
2023-04-23T01:12:18.420Z,4.10
2023-04-23T01:12:53.679Z,4.00
2023-04-23T01:13:29.964Z,4.40
2023-04-23T01:14:03.850Z,4.10
2023-04-23T01:14:39.034Z,4.30
2023-04-23T01:15:12.588Z,4.20
2023-04-23T01:15:46.524Z,4.20
2023-04-23T01:16:19.974Z,4.60
2023-04-23T01:16:53.586Z,4.50
2023-04-23T01:17:27.323Z,4.50
2023-04-23T01:18:00.890Z,4.70
2023-04-23T01:18:34.699Z,4.50
2023-04-23T01:19:10.019Z,4.20
2023-04-23T01:19:43.778Z,4.10
2023-04-23T01:20:17.561Z,4.30
2023-04-23T01:20:51.439Z,4.10
2023-04-23T01:21:25.725Z,4.20
2023-04-23T01:22:01.579Z,4.20
2023-04-23T01:22:38.025Z,4.20
2023-04-23T01:23:12.257Z,4.20
2023-04-23T01:23:46.270Z,4.10
2023-04-23T01:24:19.735Z,4.20
2023-04-23T01:24:53.166Z,4.10
2023-04-23T01:25:26.717Z,4.20
2023-04-23T01:26:00.756Z,4.40
2023-04-23T01:26:34.836Z,4.30
2023-04-23T01:27:11.412Z,4.50
2023-04-23T01:27:45.172Z,4.50
2023-04-23T01:28:19.032Z,4.10
2023-04-23T01:28:53.560Z,4.50
2023-04-23T01:29:27.568Z,4.50
2023-04-23T01:30:02.863Z,4.50
2023-04-23T01:30:36.974Z,4.30
2023-04-23T01:31:10.936Z,5.00
2023-04-23T01:31:45.159Z,4.40
2023-04-23T01:32:19.000Z,4.20
2023-04-23T01:32:54.713Z,4.10
2023-04-23T01:33:28.317Z,4.20
2023-04-23T01:34:02.218Z,4.50
2023-04-23T01:34:36.295Z,4.60
2023-04-23T01:35:11.021Z,4.40
2023-04-23T01:35:47.783Z,4.10
2023-04-23T01:36:23.552Z,4.50
2023-04-23T01:36:59.730Z,4.60
2023-04-23T01:37:34.507Z,4.50
2023-04-23T01:38:11.242Z,4.40
2023-04-23T01:38:44.667Z,4.50
2023-04-23T01:39:18.689Z,4.60
2023-04-23T01:39:52.517Z,4.40
2023-04-23T01:40:26.075Z,4.50
2023-04-23T01:40:59.461Z,4.90
2023-04-23T01:41:33.264Z,4.80
2023-04-23T01:42:07.512Z,4.40
2023-04-23T01:42:41.563Z,4.60
2023-04-23T01:43:16.203Z,4.80
2023-04-23T01:43:49.804Z,4.60
2023-04-23T01:44:23.749Z,4.50
2023-04-23T01:44:57.376Z,4.80
2023-04-23T01:45:31.894Z,4.60
2023-04-23T01:46:05.745Z,4.50
2023-04-23T01:46:39.552Z,5.10
2023-04-23T01:47:13.261Z,4.60
2023-04-23T01:47:48.034Z,4.50
2023-04-23T01:48:21.808Z,5.10
2023-04-23T01:48:55.428Z,4.70
2023-04-23T01:51:18.302Z,4.70
2023-04-23T01:51:51.647Z,4.90
2023-04-23T01:52:25.164Z,4.90
2023-04-23T01:52:58.752Z,5.00
2023-04-23T01:53:32.268Z,5.20
2023-04-23T01:54:06.674Z,5.10
2023-04-23T01:54:40.182Z,5.00
2023-04-23T01:55:14.558Z,4.60
2023-04-23T01:55:48.533Z,5.00
2023-04-23T01:56:26.378Z,5.10
2023-04-23T01:57:00.352Z,5.20
2023-04-23T01:57:33.642Z,5.40
2023-04-23T01:58:07.096Z,4.90
2023-04-23T01:58:40.636Z,5.20
2023-04-23T01:59:13.919Z,5.50
2023-04-23T01:59:47.333Z,4.80
2023-04-23T02:00:21.012Z,5.20
2023-04-23T02:00:54.352Z,5.20
2023-04-23T02:01:43.295Z,5.30
2023-04-23T02:02:17.064Z,4.90
2023-04-23T02:02:52.892Z,5.20
2023-04-23T02:03:26.495Z,4.90
2023-04-23T02:04:00.968Z,5.00
2023-04-23T02:04:34.795Z,5.40
2023-04-23T02:05:14.099Z,4.80
2023-04-23T02:05:49.698Z,5.60
2023-04-23T02:06:23.014Z,4.90
2023-04-23T02:06:56.527Z,5.30
2023-04-23T02:07:30.159Z,5.30
2023-04-23T02:08:04.477Z,5.50
2023-04-23T02:08:38.761Z,5.20
2023-04-23T02:09:12.255Z,5.10
2023-04-23T02:09:46.154Z,5.10
2023-04-23T02:10:20.850Z,5.10
2023-04-23T02:10:54.349Z,5.10
2023-04-23T02:11:27.837Z,5.40
2023-04-23T02:12:02.012Z,5.10
2023-04-23T02:12:37.263Z,4.90
2023-04-23T02:13:10.808Z,5.00
2023-04-23T02:13:44.546Z,5.10
2023-04-23T02:14:18.250Z,5.10
2023-04-23T02:14:52.006Z,5.00
2023-04-23T02:15:26.073Z,4.70
2023-04-23T02:16:00.227Z,5.00
2023-04-23T02:16:34.970Z,4.90
2023-04-23T02:17:11.380Z,4.70
2023-04-23T02:17:46.483Z,5.10
2023-04-23T02:18:19.897Z,5.20
2023-04-23T02:18:53.561Z,5.30
2023-04-23T02:19:28.063Z,5.00
2023-04-23T02:20:02.496Z,4.90
2023-04-23T02:20:39.044Z,4.60
2023-04-23T02:21:13.286Z,5.00
2023-04-23T02:21:46.726Z,5.30
2023-04-23T02:22:20.019Z,4.80
2023-04-23T02:22:53.335Z,4.80
2023-04-23T02:23:26.680Z,5.00
2023-04-23T02:24:00.038Z,4.90
2023-04-23T02:24:34.211Z,5.20
2023-04-23T02:25:08.497Z,4.80
2023-04-23T02:25:43.613Z,4.70
2023-04-23T02:26:17.117Z,4.70
2023-04-23T02:26:50.424Z,4.50
2023-04-23T02:27:23.834Z,4.50
2023-04-23T02:27:57.869Z,4.60
2023-04-23T02:28:32.078Z,4.50
2023-04-23T02:29:05.944Z,4.40
2023-04-23T02:29:39.320Z,4.70
2023-04-23T02:30:13.131Z,5.30
2023-04-23T02:30:48.091Z,4.90
2023-04-23T02:31:21.492Z,4.80
2023-04-23T02:31:54.897Z,4.60
2023-04-23T02:32:28.342Z,4.80
2023-04-23T02:33:01.859Z,5.00
2023-04-23T02:33:35.990Z,5.00
2023-04-23T02:34:09.326Z,4.70
2023-04-23T02:34:42.735Z,4.90
2023-04-23T02:35:16.423Z,4.80
2023-04-23T02:35:49.817Z,5.00
2023-04-23T02:36:23.524Z,5.10
2023-04-23T02:36:57.731Z,5.30
2023-04-23T02:37:32.575Z,4.80
2023-04-23T02:38:06.099Z,5.10
2023-04-23T02:38:42.584Z,5.40
2023-04-23T02:39:16.208Z,5.50
2023-04-23T02:39:49.605Z,5.20
2023-04-23T02:40:23.162Z,5.10
2023-04-23T02:40:56.794Z,5.20
2023-04-23T02:41:30.075Z,5.70
2023-04-23T02:42:03.392Z,4.80
2023-04-23T02:42:36.899Z,5.20
2023-04-23T02:43:11.465Z,5.20
2023-04-23T02:43:44.877Z,5.20
2023-04-23T02:44:18.178Z,5.30
2023-04-23T02:44:51.814Z,5.30
2023-04-23T02:45:25.519Z,5.10
2023-04-23T02:45:58.854Z,5.00
2023-04-23T02:46:32.553Z,5.10
2023-04-23T02:47:06.069Z,4.90
2023-04-23T02:47:39.935Z,5.00
2023-04-23T02:48:13.386Z,5.20
2023-04-23T02:48:46.842Z,5.30
2023-04-23T02:49:22.793Z,4.90
2023-04-23T02:49:56.106Z,4.90
2023-04-23T02:50:30.545Z,5.00
2023-04-23T02:51:04.591Z,5.40
2023-04-23T02:51:38.217Z,4.90
2023-04-23T02:52:11.852Z,5.20
2023-04-23T02:52:45.409Z,5.10
2023-04-23T02:53:18.968Z,5.10
2023-04-23T02:53:55.269Z,5.00
2023-04-23T02:54:28.928Z,5.20
2023-04-23T02:55:02.722Z,5.20
2023-04-23T02:55:37.100Z,5.60
2023-04-23T02:56:10.695Z,5.20
2023-04-23T02:56:44.153Z,5.60
2023-04-23T02:57:17.718Z,5.00
2023-04-23T02:57:52.054Z,4.80
2023-04-23T02:58:25.814Z,5.10
2023-04-23T02:58:59.973Z,4.90
2023-04-23T02:59:33.590Z,5.20
2023-04-23T03:00:08.060Z,5.30
2023-04-23T03:00:46.345Z,4.80
2023-04-23T03:01:20.060Z,5.20
2023-04-23T03:01:53.575Z,5.30
2023-04-23T03:02:27.136Z,5.50
2023-04-23T03:03:00.843Z,5.30
2023-04-23T03:03:34.827Z,5.20
2023-04-23T03:04:09.873Z,5.20
2023-04-23T03:04:43.703Z,5.00
2023-04-23T03:05:17.292Z,5.30
2023-04-23T03:05:50.759Z,5.60
2023-04-23T03:06:24.723Z,5.30
2023-04-23T03:06:58.214Z,5.50
2023-04-23T03:07:31.881Z,5.60
2023-04-23T03:08:05.343Z,5.20
2023-04-23T03:08:40.954Z,5.40
2023-04-23T03:09:14.841Z,5.90
2023-04-23T03:10:35.588Z,5.30
2023-04-23T03:11:09.032Z,5.50
2023-04-23T03:11:42.476Z,5.40
2023-04-23T03:12:18.414Z,5.40
2023-04-23T03:12:51.773Z,5.60
2023-04-23T03:13:26.609Z,5.40
2023-04-23T03:14:00.010Z,5.70
2023-04-23T03:14:33.527Z,5.30
2023-04-23T03:15:07.496Z,5.70
2023-04-23T03:15:42.384Z,5.60
2023-04-23T03:16:15.991Z,5.60
2023-04-23T03:16:49.552Z,5.50
2023-04-23T03:17:23.071Z,5.50
2023-04-23T03:17:56.653Z,5.50
2023-04-23T03:18:30.195Z,5.60
2023-04-23T03:19:04.155Z,5.60
2023-04-23T03:19:38.010Z,5.70
2023-04-23T03:20:12.028Z,5.50
2023-04-23T03:20:45.879Z,5.10
2023-04-23T03:21:19.262Z,5.10
2023-04-23T03:21:52.608Z,5.10
2023-04-23T03:22:26.571Z,5.10
2023-04-23T03:23:00.153Z,5.50
2023-04-23T03:23:33.680Z,5.70
2023-04-23T03:24:07.172Z,5.70
2023-04-23T03:24:40.864Z,5.60
2023-04-23T03:25:14.294Z,5.30
2023-04-23T03:25:47.747Z,5.40
2023-04-23T03:26:21.070Z,5.10
2023-04-23T03:26:54.446Z,5.40
2023-04-23T03:27:28.045Z,5.20
2023-04-23T03:28:01.866Z,5.20
2023-04-23T03:28:35.426Z,5.30
2023-04-23T03:29:08.829Z,4.90
2023-04-23T03:29:42.179Z,5.10
2023-04-23T03:30:15.698Z,5.20
2023-04-23T03:30:50.454Z,5.50
2023-04-23T03:31:24.093Z,5.30
2023-04-23T03:31:58.326Z,5.90
2023-04-23T03:32:31.820Z,5.50
2023-04-23T03:33:05.556Z,5.80
2023-04-23T03:33:39.221Z,5.00
2023-04-23T03:34:12.957Z,5.50
2023-04-23T03:34:46.881Z,5.90
2023-04-23T03:35:20.447Z,5.50
2023-04-23T03:35:54.066Z,5.30
2023-04-23T03:36:30.361Z,5.30
2023-04-23T03:37:03.739Z,5.60
2023-04-23T03:37:38.305Z,5.30
2023-04-23T03:38:12.152Z,5.60
2023-04-23T03:38:45.638Z,5.40
2023-04-23T03:39:19.191Z,5.40
2023-04-23T03:39:57.147Z,5.10
2023-04-23T03:40:31.222Z,5.30
2023-04-23T03:41:06.731Z,5.20
2023-04-23T03:41:40.102Z,5.40
2023-04-23T03:42:14.296Z,5.10
2023-04-23T03:42:48.304Z,5.00
2023-04-23T03:43:22.674Z,5.30
2023-04-23T03:44:28.375Z,4.90
2023-04-23T03:45:02.062Z,5.30
2023-04-23T03:45:35.491Z,5.50
2023-04-23T03:46:09.393Z,5.10
2023-04-23T03:46:48.029Z,5.20
2023-04-23T03:47:22.564Z,5.30
2023-04-23T03:47:56.362Z,5.50
2023-04-23T03:48:29.746Z,5.70
2023-04-23T03:49:03.123Z,5.50
2023-04-23T03:49:36.704Z,5.60
2023-04-23T03:50:10.449Z,5.60
2023-04-23T03:50:44.708Z,5.70
2023-04-23T03:51:28.345Z,5.70
2023-04-23T03:52:02.000Z,5.50
2023-04-23T03:52:36.468Z,6.20
2023-04-23T03:53:10.563Z,5.60
2023-04-23T03:54:12.731Z,5.60
2023-04-23T03:54:48.873Z,5.80
2023-04-23T03:55:27.788Z,5.60
2023-04-23T03:56:01.615Z,5.80
2023-04-23T03:56:35.700Z,5.90
2023-04-23T03:57:21.828Z,5.80
2023-04-23T03:58:04.360Z,5.80
2023-04-23T03:58:48.914Z,6.00
2023-04-23T03:59:23.122Z,6.20
2023-04-23T03:59:57.700Z,5.40
2023-04-23T04:00:31.415Z,5.80
2023-04-23T04:01:04.774Z,5.90
2023-04-23T04:01:38.197Z,6.00
2023-04-23T04:02:11.742Z,5.60
2023-04-23T04:02:45.160Z,5.60
2023-04-23T04:03:19.809Z,5.40
2023-04-23T04:03:53.727Z,5.50
2023-04-23T04:04:28.619Z,5.50
2023-04-23T04:05:03.417Z,5.20
2023-04-23T04:05:37.258Z,5.70
2023-04-23T04:06:10.590Z,5.30
2023-04-23T04:06:43.926Z,5.70
2023-04-23T04:07:18.292Z,5.80
2023-04-23T04:07:51.521Z,5.40
2023-04-23T04:08:26.815Z,5.50
2023-04-23T04:09:00.039Z,5.70
2023-04-23T04:09:33.803Z,5.70
2023-04-23T04:10:08.282Z,5.40
2023-04-23T04:10:41.599Z,5.60
2023-04-23T04:11:15.020Z,5.60
2023-04-23T04:11:48.446Z,5.70
2023-04-23T04:12:22.365Z,5.40
2023-04-23T04:12:56.434Z,5.70
2023-04-23T04:13:29.930Z,5.60
2023-04-23T04:14:03.175Z,5.50
2023-04-23T04:14:36.428Z,5.80
2023-04-23T04:15:10.102Z,5.50
2023-04-23T04:15:43.321Z,5.50
2023-04-23T04:16:16.741Z,6.30
2023-04-23T04:16:50.207Z,6.10
2023-04-23T04:17:23.546Z,5.60
2023-04-23T04:17:56.997Z,5.90
2023-04-23T04:18:30.341Z,5.90
2023-04-23T04:19:03.922Z,5.70
2023-04-23T04:19:37.448Z,5.70
2023-04-23T04:20:14.018Z,5.80
2023-04-23T04:20:47.442Z,5.90
2023-04-23T04:21:20.891Z,5.80
2023-04-23T04:21:54.952Z,5.50
2023-04-23T04:22:28.403Z,6.30
2023-04-23T04:23:01.896Z,5.90
2023-04-23T04:23:36.106Z,6.20
2023-04-23T04:24:11.684Z,6.30
2023-04-23T04:24:47.796Z,6.40
2023-04-23T04:25:22.424Z,6.60
2023-04-23T04:25:57.938Z,6.10
2023-04-23T04:26:35.209Z,6.90
2023-04-23T04:27:09.311Z,6.50
2023-04-23T04:27:43.911Z,6.40
2023-04-23T04:28:17.957Z,6.00
2023-04-23T04:28:51.651Z,6.00
2023-04-23T04:29:25.034Z,5.60
2023-04-23T04:29:58.276Z,6.00
2023-04-23T04:30:31.578Z,6.00
2023-04-23T04:31:05.747Z,6.00
2023-04-23T04:31:39.477Z,5.90
2023-04-23T04:32:14.001Z,6.30
2023-04-23T04:32:47.573Z,6.00
2023-04-23T04:33:21.279Z,6.20
2023-04-23T04:33:57.956Z,5.80
2023-04-23T04:34:31.403Z,6.10
2023-04-23T04:35:05.686Z,5.90
2023-04-23T04:35:39.553Z,6.10
2023-04-23T04:36:13.837Z,6.00
2023-04-23T04:36:48.062Z,6.00
2023-04-23T04:37:21.699Z,5.70
2023-04-23T04:37:55.381Z,6.00
2023-04-23T04:38:29.940Z,6.00
2023-04-23T04:39:03.909Z,6.00
2023-04-23T04:39:37.577Z,5.60
2023-04-23T04:40:11.847Z,5.80
2023-04-23T04:40:45.849Z,5.90
2023-04-23T04:41:22.404Z,5.70
2023-04-23T04:41:57.769Z,6.00
2023-04-23T04:42:31.679Z,6.30
2023-04-23T04:43:05.610Z,6.40
2023-04-23T04:43:39.559Z,6.10
2023-04-23T04:44:14.507Z,5.90
2023-04-23T04:44:47.769Z,6.20
2023-04-23T04:45:21.348Z,5.60
2023-04-23T04:45:54.697Z,5.90
2023-04-23T04:46:29.461Z,5.90
2023-04-23T04:47:03.228Z,6.20
2023-04-23T04:47:38.691Z,6.30
2023-04-23T04:48:12.117Z,5.90
2023-04-23T04:48:45.743Z,5.90
2023-04-23T04:49:19.875Z,5.70
2023-04-23T04:49:53.140Z,6.10
2023-04-23T04:50:26.512Z,5.80
2023-04-23T04:51:00.145Z,5.70
2023-04-23T04:51:33.445Z,6.10
2023-04-23T04:52:07.160Z,5.60
2023-04-23T04:52:40.441Z,5.70
2023-04-23T04:53:13.696Z,6.00
2023-04-23T04:53:47.199Z,5.80
2023-04-23T04:54:21.879Z,5.80
2023-04-23T04:54:55.205Z,6.60
2023-04-23T04:55:28.551Z,5.80
2023-04-23T04:56:02.025Z,5.60
2023-04-23T04:56:35.808Z,6.00
2023-04-23T04:57:09.567Z,6.20
2023-04-23T04:57:42.861Z,5.80
2023-04-23T04:58:16.511Z,5.80
2023-04-23T04:58:50.079Z,5.90
2023-04-23T04:59:23.589Z,5.60
2023-04-23T05:00:02.558Z,5.80
2023-04-23T05:00:36.204Z,5.90
2023-04-23T05:01:09.945Z,5.60
2023-04-23T05:01:44.163Z,5.70
2023-04-23T05:02:18.003Z,5.80
2023-04-23T05:02:52.577Z,6.00
2023-04-23T05:03:27.243Z,6.20
2023-04-23T05:04:01.139Z,5.50
2023-04-23T05:04:35.021Z,5.20
2023-04-23T05:05:09.147Z,5.70
2023-04-23T05:05:43.086Z,6.00
2023-04-23T05:06:16.503Z,6.30
2023-04-23T05:06:49.792Z,6.00
2023-04-23T05:07:22.983Z,5.70
2023-04-23T05:07:59.380Z,5.80
2023-04-23T05:08:32.879Z,6.00
2023-04-23T05:09:09.302Z,6.20
2023-04-23T05:09:44.910Z,6.50
2023-04-23T05:10:18.757Z,7.90
2023-04-23T05:10:52.341Z,7.80
2023-04-23T05:11:25.951Z,6.70
2023-04-23T05:12:00.132Z,6.60
2023-04-23T05:12:33.642Z,6.30
2023-04-23T05:13:07.026Z,5.80
2023-04-23T05:13:40.385Z,6.30
2023-04-23T05:14:13.728Z,5.90
2023-04-23T05:14:47.300Z,5.80
2023-04-23T05:15:20.741Z,5.90
2023-04-23T05:15:54.029Z,5.70
2023-04-23T05:16:27.569Z,6.00
2023-04-23T05:17:01.084Z,6.00
2023-04-23T05:17:34.615Z,5.70
2023-04-23T05:18:10.511Z,6.20
2023-04-23T05:18:43.873Z,5.90
2023-04-23T05:19:17.558Z,5.80
2023-04-23T05:19:51.338Z,6.20
2023-04-23T05:20:24.670Z,6.60
2023-04-23T05:20:58.066Z,6.10
2023-04-23T05:21:31.719Z,6.40
2023-04-23T05:22:06.212Z,6.40
2023-04-23T05:22:41.777Z,6.40
2023-04-23T05:23:15.127Z,5.90
2023-04-23T05:23:49.664Z,6.20
2023-04-23T05:24:23.230Z,5.90
2023-04-23T05:24:56.625Z,5.70
2023-04-23T05:25:31.346Z,6.80
2023-04-23T05:26:04.854Z,6.20
2023-04-23T05:26:38.626Z,6.50
2023-04-23T05:27:12.047Z,6.10
2023-04-23T05:27:45.367Z,6.30
2023-04-23T05:28:18.774Z,6.60
2023-04-23T05:28:52.168Z,6.20
2023-04-23T05:29:25.561Z,6.40
2023-04-23T05:29:59.789Z,6.30
2023-04-23T05:30:33.247Z,6.30
2023-04-23T05:31:06.708Z,5.90
2023-04-23T05:31:40.122Z,5.90
2023-04-23T05:32:13.680Z,6.30
2023-04-23T05:32:47.234Z,5.60
2023-04-23T05:33:20.692Z,5.80
2023-04-23T05:33:54.066Z,5.90
2023-04-23T05:34:28.336Z,6.10
2023-04-23T05:35:06.591Z,5.90
2023-04-23T05:35:40.784Z,5.70
2023-04-23T05:36:14.230Z,6.30
2023-04-23T05:36:47.710Z,6.20
2023-04-23T05:37:21.259Z,6.40
2023-04-23T05:37:54.674Z,6.30
2023-04-23T05:38:28.056Z,6.50
2023-04-23T05:39:01.506Z,6.70
2023-04-23T05:39:35.502Z,6.10
2023-04-23T05:40:10.032Z,6.10
2023-04-23T05:40:43.977Z,6.30
2023-04-23T05:41:17.777Z,6.10
2023-04-23T05:41:51.249Z,6.50
2023-04-23T05:42:24.844Z,6.20
2023-04-23T05:43:02.141Z,6.20
2023-04-23T05:43:35.866Z,6.20
2023-04-23T05:44:09.164Z,6.00
2023-04-23T05:44:42.839Z,6.40
2023-04-23T05:45:16.570Z,6.00
2023-04-23T05:45:50.056Z,6.10
2023-04-23T05:46:23.614Z,6.00
2023-04-23T05:46:57.214Z,5.90
2023-04-23T05:47:30.720Z,5.80
2023-04-23T05:48:04.462Z,6.20
2023-04-23T05:48:37.938Z,5.90
2023-04-23T05:49:11.462Z,6.20
2023-04-23T05:49:44.991Z,6.50
2023-04-23T05:50:19.415Z,6.20
2023-04-23T05:50:54.864Z,6.30
2023-04-23T05:51:28.438Z,6.00
2023-04-23T05:52:03.400Z,6.40
2023-04-23T05:52:37.823Z,6.20
2023-04-23T05:53:11.421Z,6.40
2023-04-23T05:53:44.760Z,6.00
2023-04-23T05:54:18.159Z,6.50
2023-04-23T05:54:52.281Z,6.10
2023-04-23T05:55:26.356Z,6.00
2023-04-23T05:55:59.872Z,5.80
2023-04-23T05:56:33.252Z,6.00
2023-04-23T05:57:06.669Z,6.00
2023-04-23T05:57:40.128Z,6.10
2023-04-23T05:58:13.566Z,6.10
2023-04-23T05:58:46.985Z,5.90
2023-04-23T05:59:20.457Z,6.30
2023-04-23T05:59:53.722Z,6.40
2023-04-23T06:00:28.454Z,6.10
2023-04-23T06:01:01.917Z,6.70
2023-04-23T06:01:36.184Z,6.50
2023-04-23T06:02:11.384Z,6.50
2023-04-23T06:02:45.178Z,7.10
2023-04-23T06:03:18.894Z,6.90
2023-04-23T06:03:52.956Z,6.50
2023-04-23T06:04:27.563Z,6.50
2023-04-23T06:05:01.904Z,6.60
2023-04-23T06:05:36.588Z,6.50
2023-04-23T06:06:10.015Z,6.30
2023-04-23T06:06:44.059Z,5.90
2023-04-23T06:07:17.425Z,5.80
2023-04-23T06:07:50.739Z,6.30
2023-04-23T06:08:25.139Z,6.40
2023-04-23T06:08:58.856Z,6.10
2023-04-23T06:09:32.364Z,6.20
2023-04-23T06:10:06.532Z,6.30
2023-04-23T06:10:39.964Z,6.40
2023-04-23T06:11:13.816Z,6.30
2023-04-23T06:11:47.378Z,6.50
2023-04-23T06:12:21.330Z,6.20
2023-04-23T06:12:55.952Z,5.70
2023-04-23T06:13:31.047Z,6.50
2023-04-23T06:14:05.348Z,5.80
2023-04-23T06:14:38.836Z,5.80
2023-04-23T06:15:12.394Z,5.50
2023-04-23T06:15:45.906Z,5.70
2023-04-23T06:16:19.755Z,6.20
2023-04-23T06:16:53.190Z,5.90
2023-04-23T06:17:26.562Z,5.90
2023-04-23T06:17:59.962Z,5.90
2023-04-23T06:18:33.338Z,5.90
2023-04-23T06:19:06.845Z,5.80
2023-04-23T06:19:40.242Z,6.00
2023-04-23T06:20:13.566Z,6.10
2023-04-23T06:20:48.684Z,6.40
2023-04-23T06:21:23.205Z,5.80
2023-04-23T06:21:56.682Z,6.20
2023-04-23T06:22:30.034Z,5.90
2023-04-23T06:23:03.549Z,6.20
2023-04-23T06:23:37.505Z,5.90
2023-04-23T06:24:11.056Z,5.90
2023-04-23T06:24:44.591Z,6.20
2023-04-23T06:25:18.294Z,6.40
2023-04-23T06:25:51.827Z,5.60
2023-04-23T06:26:25.297Z,6.10
2023-04-23T06:26:58.890Z,6.10
2023-04-23T06:27:33.995Z,6.40
2023-04-23T06:28:11.737Z,6.50
2023-04-23T06:29:05.150Z,5.90
2023-04-23T06:29:43.064Z,6.30
2023-04-23T06:30:16.589Z,6.10
2023-04-23T06:30:50.815Z,6.10
2023-04-23T06:31:24.350Z,5.90
2023-04-23T06:32:01.767Z,5.40
2023-04-23T06:32:35.488Z,5.10
2023-04-23T06:33:09.521Z,5.60
2023-04-23T06:33:42.927Z,5.00
2023-04-23T06:34:16.369Z,5.30
2023-04-23T06:34:59.383Z,5.40
2023-04-23T06:35:34.025Z,5.00
2023-04-23T06:36:11.205Z,5.40
2023-04-23T06:36:44.537Z,5.10
2023-04-23T06:37:17.934Z,5.10
2023-04-23T06:37:51.272Z,5.20
2023-04-23T06:38:24.725Z,5.20
2023-04-23T06:38:58.224Z,5.00
2023-04-23T06:39:35.430Z,4.80
2023-04-23T06:40:09.341Z,5.00
2023-04-23T06:40:42.763Z,5.10
2023-04-23T06:41:16.305Z,5.10
2023-04-23T06:41:49.934Z,5.20
2023-04-23T06:42:37.247Z,5.00
2023-04-23T06:43:36.327Z,5.20
2023-04-23T06:44:21.856Z,4.90
2023-04-23T06:45:06.273Z,5.00
2023-04-23T06:45:40.645Z,4.90
2023-04-23T06:46:15.357Z,5.00
2023-04-23T06:46:48.850Z,5.10
2023-04-23T06:47:22.314Z,4.90
2023-04-23T06:47:56.522Z,5.00
2023-04-23T06:48:30.005Z,4.80
2023-04-23T06:49:03.606Z,4.80
2023-04-23T06:49:37.095Z,4.90
2023-04-23T06:50:10.583Z,4.60
2023-04-23T06:50:46.673Z,4.70
2023-04-23T06:51:20.310Z,4.60
2023-04-23T06:51:54.251Z,5.20
2023-04-23T06:52:28.622Z,4.80
2023-04-23T06:53:02.298Z,4.80
2023-04-23T06:53:38.490Z,4.90
2023-04-23T06:54:12.028Z,4.90
2023-04-23T06:54:45.313Z,4.80
2023-04-23T06:55:19.242Z,5.00
2023-04-23T06:55:52.650Z,5.00
2023-04-23T06:56:27.777Z,4.70
2023-04-23T06:57:01.675Z,4.80
2023-04-23T06:57:36.128Z,4.50
2023-04-23T06:58:09.486Z,5.10
2023-04-23T06:58:42.808Z,4.60
2023-04-23T06:59:22.148Z,4.70
2023-04-23T06:59:58.102Z,5.00
2023-04-23T07:01:08.012Z,4.40
2023-04-23T07:01:41.585Z,4.00
2023-04-23T07:02:15.005Z,4.20
2023-04-23T07:02:48.355Z,4.10
2023-04-23T07:03:22.571Z,4.30
2023-04-23T07:03:56.340Z,3.90
2023-04-23T07:04:29.872Z,3.80
2023-04-23T07:05:03.827Z,4.10
2023-04-23T07:05:37.446Z,3.90
2023-04-23T07:06:11.439Z,4.00
2023-04-23T07:06:44.705Z,4.10
2023-04-23T07:07:18.226Z,4.30
2023-04-23T07:07:51.707Z,4.00
2023-04-23T07:08:27.765Z,4.20
2023-04-23T07:09:01.261Z,3.90
2023-04-23T07:09:34.909Z,3.70
2023-04-23T07:10:09.443Z,3.60
2023-04-23T07:10:42.812Z,3.90
2023-04-23T07:11:16.337Z,3.80
2023-04-23T07:11:49.853Z,3.80
2023-04-23T07:12:23.353Z,3.70
2023-04-23T07:12:57.155Z,4.10
2023-04-23T07:13:30.779Z,3.80
2023-04-23T07:14:06.868Z,3.70
2023-04-23T07:14:40.491Z,3.90
2023-04-23T07:15:14.116Z,4.00
2023-04-23T07:16:00.026Z,4.20
2023-04-23T07:16:36.834Z,3.80
2023-04-23T07:17:11.538Z,3.70
2023-04-23T07:17:44.970Z,3.80
2023-04-23T07:18:18.487Z,3.80
2023-04-23T07:18:51.890Z,4.00
2023-04-23T07:19:25.460Z,3.80
2023-04-23T07:19:58.761Z,3.70
2023-04-23T07:20:32.840Z,4.10
2023-04-23T07:21:07.400Z,3.60
2023-04-23T07:21:44.099Z,3.80
2023-04-23T07:22:17.616Z,3.70
2023-04-23T07:22:51.020Z,3.90
2023-04-23T07:23:24.280Z,4.20
2023-04-23T07:23:59.979Z,4.00
2023-04-23T07:24:36.519Z,4.10
2023-04-23T07:25:10.255Z,3.80
2023-04-23T07:25:43.803Z,3.80
2023-04-23T07:26:17.896Z,3.70
2023-04-23T07:26:51.341Z,3.70
2023-04-23T07:27:24.962Z,3.60
2023-04-23T07:27:58.734Z,3.70
2023-04-23T07:28:33.054Z,3.50
2023-04-23T07:29:08.011Z,3.50
2023-04-23T07:29:41.220Z,3.40
2023-04-23T07:30:14.835Z,3.20
2023-04-23T07:30:49.380Z,3.20
2023-04-23T07:31:24.032Z,3.20
2023-04-23T07:31:57.717Z,3.30
2023-04-23T07:32:31.075Z,3.20
2023-04-23T07:33:04.817Z,3.10
2023-04-23T07:33:38.226Z,3.10
2023-04-23T07:34:11.703Z,3.10
2023-04-23T07:34:45.212Z,3.40
2023-04-23T07:35:18.889Z,3.10
2023-04-23T07:35:52.824Z,3.20
2023-04-23T07:36:28.893Z,3.50
2023-04-23T07:37:03.011Z,2.80
2023-04-23T07:37:37.610Z,2.80
2023-04-23T07:38:11.352Z,3.20
2023-04-23T07:38:47.753Z,3.40
2023-04-23T07:39:21.091Z,3.20
2023-04-23T07:39:54.348Z,3.30
2023-04-23T07:40:27.777Z,3.10
2023-04-23T07:41:01.350Z,2.80